sensor_id;sensor_type;location;lat;lon;timestamp;P1;durP1;ratioP1;P2;durP2;ratioP2
31734;SDS011;18313;48.518;9.124;2023-01-05T00:01:08;0.47;;;0.30;;
31734;SDS011;18313;48.518;9.124;2023-01-05T00:03:36;0.73;;;0.30;;
31734;SDS011;18313;48.518;9.124;2023-01-05T00:06:14;0.20;;;0.20;;
31734;SDS011;18313;48.518;9.124;2023-01-05T00:08:43;0.93;;;0.30;;
31734;SDS011;18313;48.518;9.124;2023-01-05T00:11:15;0.30;;;0.30;;
31734;SDS011;18313;48.518;9.124;2023-01-05T00:14:02;0.30;;;0.30;;
31734;SDS011;18313;48.518;9.124;2023-01-05T00:16:49;0.88;;;0.40;;
31734;SDS011;18313;48.518;9.124;2023-01-05T00:19:34;0.30;;;0.30;;
31734;SDS011;18313;48.518;9.124;2023-01-05T00:22:22;0.30;;;0.30;;
31734;SDS011;18313;48.518;9.124;2023-01-05T00:25:10;0.93;;;0.40;;
31734;SDS011;18313;48.518;9.124;2023-01-05T00:27:43;0.20;;;0.20;;
31734;SDS011;18313;48.518;9.124;2023-01-05T00:30:15;0.30;;;0.20;;
31734;SDS011;18313;48.518;9.124;2023-01-05T00:32:44;0.63;;;0.35;;
31734;SDS011;18313;48.518;9.124;2023-01-05T00:35:12;0.20;;;0.20;;
31734;SDS011;18313;48.518;9.124;2023-01-05T00:37:41;0.63;;;0.38;;
31734;SDS011;18313;48.518;9.124;2023-01-05T00:40:10;0.20;;;0.20;;
31734;SDS011;18313;48.518;9.124;2023-01-05T00:42:39;0.47;;;0.30;;
31734;SDS011;18313;48.518;9.124;2023-01-05T00:45:07;1.30;;;0.30;;
31734;SDS011;18313;48.518;9.124;2023-01-05T00:47:36;0.30;;;0.30;;
31734;SDS011;18313;48.518;9.124;2023-01-05T00:50:03;0.30;;;0.30;;
31734;SDS011;18313;48.518;9.124;2023-01-05T00:52:31;0.80;;;0.30;;
31734;SDS011;18313;48.518;9.124;2023-01-05T00:54:58;0.28;;;0.20;;
31734;SDS011;18313;48.518;9.124;2023-01-05T00:57:25;0.20;;;0.20;;
31734;SDS011;18313;48.518;9.124;2023-01-05T00:59:52;1.33;;;0.30;;
31734;SDS011;18313;48.518;9.124;2023-01-05T01:02:19;0.20;;;0.20;;
31734;SDS011;18313;48.518;9.124;2023-01-05T01:04:47;0.32;;;0.30;;
31734;SDS011;18313;48.518;9.124;2023-01-05T01:07:14;0.20;;;0.20;;
31734;SDS011;18313;48.518;9.124;2023-01-05T01:09:42;0.20;;;0.20;;
31734;SDS011;18313;48.518;9.124;2023-01-05T01:12:09;0.30;;;0.30;;
31734;SDS011;18313;48.518;9.124;2023-01-05T01:14:37;0.35;;;0.30;;
31734;SDS011;18313;48.518;9.124;2023-01-05T01:17:04;0.50;;;0.40;;
31734;SDS011;18313;48.518;9.124;2023-01-05T01:19:32;0.73;;;0.20;;
31734;SDS011;18313;48.518;9.124;2023-01-05T01:21:59;1.13;;;0.30;;
31734;SDS011;18313;48.518;9.124;2023-01-05T01:24:27;0.47;;;0.20;;
31734;SDS011;18313;48.518;9.124;2023-01-05T01:26:54;0.52;;;0.20;;
31734;SDS011;18313;48.518;9.124;2023-01-05T01:29:22;0.20;;;0.20;;
31734;SDS011;18313;48.518;9.124;2023-01-05T01:31:51;0.20;;;0.20;;
31734;SDS011;18313;48.518;9.124;2023-01-05T01:34:19;0.30;;;0.30;;
31734;SDS011;18313;48.518;9.124;2023-01-05T01:36:46;0.40;;;0.40;;
31734;SDS011;18313;48.518;9.124;2023-01-05T01:39:14;0.30;;;0.30;;
31734;SDS011;18313;48.518;9.124;2023-01-05T01:41:42;0.85;;;0.28;;
31734;SDS011;18313;48.518;9.124;2023-01-05T01:47:13;0.22;;;0.22;;
31734;SDS011;18313;48.518;9.124;2023-01-05T01:49:47;0.93;;;0.30;;
31734;SDS011;18313;48.518;9.124;2023-01-05T01:52:15;0.30;;;0.30;;
31734;SDS011;18313;48.518;9.124;2023-01-05T01:54:42;0.40;;;0.30;;
31734;SDS011;18313;48.518;9.124;2023-01-05T01:57:11;0.20;;;0.20;;
31734;SDS011;18313;48.518;9.124;2023-01-05T01:59:39;0.65;;;0.20;;
31734;SDS011;18313;48.518;9.124;2023-01-05T02:02:07;0.30;;;0.30;;
31734;SDS011;18313;48.518;9.124;2023-01-05T02:04:35;1.40;;;0.20;;
31734;SDS011;18313;48.518;9.124;2023-01-05T02:07:03;0.20;;;0.20;;
31734;SDS011;18313;48.518;9.124;2023-01-05T02:09:32;0.30;;;0.20;;
31734;SDS011;18313;48.518;9.124;2023-01-05T02:12:11;1.02;;;0.20;;
31734;SDS011;18313;48.518;9.124;2023-01-05T02:17:59;0.32;;;0.30;;
31734;SDS011;18313;48.518;9.124;2023-01-05T02:20:35;0.20;;;0.20;;
31734;SDS011;18313;48.518;9.124;2023-01-05T02:23:24;0.47;;;0.30;;
31734;SDS011;18313;48.518;9.124;2023-01-05T02:32:26;2.03;;;0.30;;
31734;SDS011;18313;48.518;9.124;2023-01-05T02:37:47;0.20;;;0.20;;
31734;SDS011;18313;48.518;9.124;2023-01-05T02:40:33;0.20;;;0.20;;
31734;SDS011;18313;48.518;9.124;2023-01-05T02:43:05;0.30;;;0.20;;
31734;SDS011;18313;48.518;9.124;2023-01-05T02:45:34;0.32;;;0.28;;
31734;SDS011;18313;48.518;9.124;2023-01-05T02:48:01;1.00;;;0.40;;
31734;SDS011;18313;48.518;9.124;2023-01-05T02:50:31;0.20;;;0.20;;
31734;SDS011;18313;48.518;9.124;2023-01-05T02:53:20;0.30;;;0.20;;
31734;SDS011;18313;48.518;9.124;2023-01-05T02:55:55;0.10;;;0.10;;
31734;SDS011;18313;48.518;9.124;2023-01-05T02:58:29;0.75;;;0.30;;
31734;SDS011;18313;48.518;9.124;2023-01-05T03:01:05;0.75;;;0.20;;
31734;SDS011;18313;48.518;9.124;2023-01-05T03:03:40;0.10;;;0.10;;
31734;SDS011;18313;48.518;9.124;2023-01-05T03:06:12;0.30;;;0.20;;
31734;SDS011;18313;48.518;9.124;2023-01-05T03:08:50;0.20;;;0.20;;
31734;SDS011;18313;48.518;9.124;2023-01-05T03:11:24;0.20;;;0.20;;
31734;SDS011;18313;48.518;9.124;2023-01-05T03:16:47;0.40;;;0.20;;
31734;SDS011;18313;48.518;9.124;2023-01-05T03:19:16;0.55;;;0.20;;
31734;SDS011;18313;48.518;9.124;2023-01-05T03:22:23;0.20;;;0.20;;
31734;SDS011;18313;48.518;9.124;2023-01-05T03:25:15;1.23;;;0.30;;
31734;SDS011;18313;48.518;9.124;2023-01-05T03:28:05;0.13;;;0.13;;
31734;SDS011;18313;48.518;9.124;2023-01-05T03:37:00;0.30;;;0.20;;
31734;SDS011;18313;48.518;9.124;2023-01-05T03:39:32;0.20;;;0.20;;
31734;SDS011;18313;48.518;9.124;2023-01-05T03:42:03;0.55;;;0.30;;
31734;SDS011;18313;48.518;9.124;2023-01-05T03:44:34;0.70;;;0.20;;
31734;SDS011;18313;48.518;9.124;2023-01-05T03:47:02;0.20;;;0.20;;
31734;SDS011;18313;48.518;9.124;2023-01-05T03:49:30;0.20;;;0.20;;
31734;SDS011;18313;48.518;9.124;2023-01-05T03:51:57;1.75;;;0.20;;
31734;SDS011;18313;48.518;9.124;2023-01-05T03:54:24;0.45;;;0.30;;
31734;SDS011;18313;48.518;9.124;2023-01-05T03:56:51;0.20;;;0.20;;
31734;SDS011;18313;48.518;9.124;2023-01-05T03:59:18;0.30;;;0.17;;
31734;SDS011;18313;48.518;9.124;2023-01-05T04:01:46;0.30;;;0.20;;
31734;SDS011;18313;48.518;9.124;2023-01-05T04:04:13;0.20;;;0.20;;
31734;SDS011;18313;48.518;9.124;2023-01-05T04:06:41;0.50;;;0.20;;
31734;SDS011;18313;48.518;9.124;2023-01-05T04:09:08;0.65;;;0.20;;
31734;SDS011;18313;48.518;9.124;2023-01-05T04:11:35;0.20;;;0.20;;
31734;SDS011;18313;48.518;9.124;2023-01-05T04:14:02;0.20;;;0.20;;
31734;SDS011;18313;48.518;9.124;2023-01-05T04:16:29;0.20;;;0.20;;
31734;SDS011;18313;48.518;9.124;2023-01-05T04:18:56;0.20;;;0.20;;
31734;SDS011;18313;48.518;9.124;2023-01-05T04:21:23;0.25;;;0.25;;
31734;SDS011;18313;48.518;9.124;2023-01-05T04:23:50;0.20;;;0.20;;
31734;SDS011;18313;48.518;9.124;2023-01-05T04:26:18;0.20;;;0.20;;
31734;SDS011;18313;48.518;9.124;2023-01-05T04:28:45;0.52;;;0.20;;
31734;SDS011;18313;48.518;9.124;2023-01-05T04:31:11;0.47;;;0.20;;
31734;SDS011;18313;48.518;9.124;2023-01-05T04:33:39;0.20;;;0.20;;
31734;SDS011;18313;48.518;9.124;2023-01-05T04:36:06;0.15;;;0.15;;
31734;SDS011;18313;48.518;9.124;2023-01-05T04:38:33;1.45;;;0.20;;
31734;SDS011;18313;48.518;9.124;2023-01-05T04:41:01;0.20;;;0.20;;
31734;SDS011;18313;48.518;9.124;2023-01-05T04:43:28;0.20;;;0.20;;
31734;SDS011;18313;48.518;9.124;2023-01-05T04:45:55;0.30;;;0.10;;
31734;SDS011;18313;48.518;9.124;2023-01-05T04:48:22;0.10;;;0.10;;
31734;SDS011;18313;48.518;9.124;2023-01-05T04:50:52;0.10;;;0.10;;
31734;SDS011;18313;48.518;9.124;2023-01-05T04:53:21;0.20;;;0.20;;
31734;SDS011;18313;48.518;9.124;2023-01-05T04:55:49;0.10;;;0.10;;
31734;SDS011;18313;48.518;9.124;2023-01-05T04:58:17;0.43;;;0.30;;
31734;SDS011;18313;48.518;9.124;2023-01-05T05:00:45;0.75;;;0.10;;
31734;SDS011;18313;48.518;9.124;2023-01-05T05:03:13;0.20;;;0.20;;
31734;SDS011;18313;48.518;9.124;2023-01-05T05:05:41;0.22;;;0.22;;
31734;SDS011;18313;48.518;9.124;2023-01-05T05:08:08;0.20;;;0.20;;
31734;SDS011;18313;48.518;9.124;2023-01-05T05:10:35;0.10;;;0.10;;
31734;SDS011;18313;48.518;9.124;2023-01-05T05:13:03;0.38;;;0.20;;
31734;SDS011;18313;48.518;9.124;2023-01-05T05:15:30;0.20;;;0.20;;
31734;SDS011;18313;48.518;9.124;2023-01-05T05:17:57;0.70;;;0.20;;
31734;SDS011;18313;48.518;9.124;2023-01-05T05:20:30;0.20;;;0.20;;
31734;SDS011;18313;48.518;9.124;2023-01-05T05:22:58;0.30;;;0.30;;
31734;SDS011;18313;48.518;9.124;2023-01-05T05:25:25;0.20;;;0.20;;
31734;SDS011;18313;48.518;9.124;2023-01-05T05:27:52;0.20;;;0.20;;
31734;SDS011;18313;48.518;9.124;2023-01-05T05:30:19;0.20;;;0.20;;
31734;SDS011;18313;48.518;9.124;2023-01-05T05:32:46;0.68;;;0.20;;
31734;SDS011;18313;48.518;9.124;2023-01-05T05:35:14;0.20;;;0.20;;
31734;SDS011;18313;48.518;9.124;2023-01-05T05:37:41;0.20;;;0.20;;
31734;SDS011;18313;48.518;9.124;2023-01-05T05:40:08;0.20;;;0.20;;
31734;SDS011;18313;48.518;9.124;2023-01-05T05:42:36;0.20;;;0.20;;
31734;SDS011;18313;48.518;9.124;2023-01-05T05:45:03;0.20;;;0.20;;
31734;SDS011;18313;48.518;9.124;2023-01-05T05:47:31;0.20;;;0.20;;
31734;SDS011;18313;48.518;9.124;2023-01-05T05:49:58;0.10;;;0.10;;
31734;SDS011;18313;48.518;9.124;2023-01-05T05:52:25;0.10;;;0.10;;
31734;SDS011;18313;48.518;9.124;2023-01-05T05:54:52;0.20;;;0.20;;
31734;SDS011;18313;48.518;9.124;2023-01-05T05:57:19;0.15;;;0.15;;
31734;SDS011;18313;48.518;9.124;2023-01-05T05:59:46;0.10;;;0.10;;
31734;SDS011;18313;48.518;9.124;2023-01-05T06:02:13;0.22;;;0.20;;
31734;SDS011;18313;48.518;9.124;2023-01-05T06:04:42;0.20;;;0.20;;
31734;SDS011;18313;48.518;9.124;2023-01-05T06:07:09;0.20;;;0.20;;
31734;SDS011;18313;48.518;9.124;2023-01-05T06:09:36;0.20;;;0.20;;
31734;SDS011;18313;48.518;9.124;2023-01-05T06:12:04;0.20;;;0.20;;
31734;SDS011;18313;48.518;9.124;2023-01-05T06:14:31;0.20;;;0.20;;
31734;SDS011;18313;48.518;9.124;2023-01-05T06:16:58;0.85;;;0.20;;
31734;SDS011;18313;48.518;9.124;2023-01-05T06:19:26;0.17;;;0.17;;
31734;SDS011;18313;48.518;9.124;2023-01-05T06:21:53;0.20;;;0.20;;
31734;SDS011;18313;48.518;9.124;2023-01-05T06:24:20;0.15;;;0.15;;
31734;SDS011;18313;48.518;9.124;2023-01-05T06:26:47;0.63;;;0.20;;
31734;SDS011;18313;48.518;9.124;2023-01-05T06:29:15;0.20;;;0.20;;
31734;SDS011;18313;48.518;9.124;2023-01-05T06:31:42;0.17;;;0.17;;
31734;SDS011;18313;48.518;9.124;2023-01-05T06:34:09;0.20;;;0.20;;
31734;SDS011;18313;48.518;9.124;2023-01-05T06:36:36;0.15;;;0.15;;
31734;SDS011;18313;48.518;9.124;2023-01-05T06:39:03;0.20;;;0.20;;
31734;SDS011;18313;48.518;9.124;2023-01-05T06:41:30;0.20;;;0.20;;
31734;SDS011;18313;48.518;9.124;2023-01-05T06:43:57;0.20;;;0.20;;
31734;SDS011;18313;48.518;9.124;2023-01-05T06:46:24;0.20;;;0.20;;
31734;SDS011;18313;48.518;9.124;2023-01-05T06:48:52;0.20;;;0.20;;
31734;SDS011;18313;48.518;9.124;2023-01-05T06:51:19;0.30;;;0.30;;
31734;SDS011;18313;48.518;9.124;2023-01-05T06:53:46;0.20;;;0.20;;
31734;SDS011;18313;48.518;9.124;2023-01-05T06:56:13;0.50;;;0.20;;
31734;SDS011;18313;48.518;9.124;2023-01-05T06:58:40;0.43;;;0.20;;
31734;SDS011;18313;48.518;9.124;2023-01-05T07:01:07;0.47;;;0.30;;
31734;SDS011;18313;48.518;9.124;2023-01-05T07:03:35;0.25;;;0.20;;
31734;SDS011;18313;48.518;9.124;2023-01-05T07:06:02;0.95;;;0.30;;
31734;SDS011;18313;48.518;9.124;2023-01-05T07:08:35;0.75;;;0.25;;
31734;SDS011;18313;48.518;9.124;2023-01-05T07:11:02;0.20;;;0.20;;
31734;SDS011;18313;48.518;9.124;2023-01-05T07:13:30;0.75;;;0.30;;
31734;SDS011;18313;48.518;9.124;2023-01-05T07:15:57;0.30;;;0.30;;
31734;SDS011;18313;48.518;9.124;2023-01-05T07:18:24;0.32;;;0.30;;
31734;SDS011;18313;48.518;9.124;2023-01-05T07:20:51;0.30;;;0.30;;
31734;SDS011;18313;48.518;9.124;2023-01-05T07:23:18;0.10;;;0.10;;
31734;SDS011;18313;48.518;9.124;2023-01-05T07:25:45;1.10;;;0.30;;
31734;SDS011;18313;48.518;9.124;2023-01-05T07:28:13;0.22;;;0.22;;
31734;SDS011;18313;48.518;9.124;2023-01-05T07:30:40;1.48;;;0.30;;
31734;SDS011;18313;48.518;9.124;2023-01-05T07:33:07;0.10;;;0.10;;
31734;SDS011;18313;48.518;9.124;2023-01-05T07:35:35;0.20;;;0.20;;
31734;SDS011;18313;48.518;9.124;2023-01-05T07:38:02;0.30;;;0.30;;
31734;SDS011;18313;48.518;9.124;2023-01-05T07:40:29;0.25;;;0.25;;
31734;SDS011;18313;48.518;9.124;2023-01-05T07:42:56;0.45;;;0.30;;
31734;SDS011;18313;48.518;9.124;2023-01-05T07:45:24;0.65;;;0.22;;
31734;SDS011;18313;48.518;9.124;2023-01-05T07:47:51;0.20;;;0.20;;
31734;SDS011;18313;48.518;9.124;2023-01-05T07:50:18;1.13;;;0.40;;
31734;SDS011;18313;48.518;9.124;2023-01-05T07:52:45;0.35;;;0.30;;
31734;SDS011;18313;48.518;9.124;2023-01-05T07:55:12;0.28;;;0.28;;
31734;SDS011;18313;48.518;9.124;2023-01-05T07:57:39;2.28;;;0.30;;
31734;SDS011;18313;48.518;9.124;2023-01-05T08:00:07;1.10;;;0.30;;
31734;SDS011;18313;48.518;9.124;2023-01-05T08:02:35;0.20;;;0.20;;
31734;SDS011;18313;48.518;9.124;2023-01-05T08:05:03;0.90;;;0.30;;
31734;SDS011;18313;48.518;9.124;2023-01-05T08:07:30;0.95;;;0.20;;
31734;SDS011;18313;48.518;9.124;2023-01-05T08:09:58;1.23;;;0.40;;
31734;SDS011;18313;48.518;9.124;2023-01-05T08:12:43;0.38;;;0.30;;
31734;SDS011;18313;48.518;9.124;2023-01-05T08:15:29;1.52;;;0.50;;
31734;SDS011;18313;48.518;9.124;2023-01-05T08:17:56;1.67;;;0.70;;
31734;SDS011;18313;48.518;9.124;2023-01-05T08:20:24;1.60;;;0.40;;
31734;SDS011;18313;48.518;9.124;2023-01-05T08:22:51;0.30;;;0.30;;
31734;SDS011;18313;48.518;9.124;2023-01-05T08:25:19;0.28;;;0.28;;
31734;SDS011;18313;48.518;9.124;2023-01-05T08:27:46;2.10;;;0.45;;
31734;SDS011;18313;48.518;9.124;2023-01-05T08:30:16;1.80;;;1.10;;
31734;SDS011;18313;48.518;9.124;2023-01-05T08:32:44;2.90;;;1.80;;
31734;SDS011;18313;48.518;9.124;2023-01-05T08:35:11;4.18;;;1.92;;
31734;SDS011;18313;48.518;9.124;2023-01-05T08:37:38;2.75;;;1.70;;
31734;SDS011;18313;48.518;9.124;2023-01-05T08:40:06;1.42;;;0.90;;
31734;SDS011;18313;48.518;9.124;2023-01-05T08:42:34;0.55;;;0.35;;
31734;SDS011;18313;48.518;9.124;2023-01-05T08:45:02;1.40;;;0.50;;
31734;SDS011;18313;48.518;9.124;2023-01-05T08:47:29;1.02;;;0.40;;
31734;SDS011;18313;48.518;9.124;2023-01-05T08:49:56;0.80;;;0.60;;
31734;SDS011;18313;48.518;9.124;2023-01-05T08:52:24;1.10;;;0.60;;
31734;SDS011;18313;48.518;9.124;2023-01-05T08:54:51;1.58;;;0.50;;
31734;SDS011;18313;48.518;9.124;2023-01-05T08:57:18;0.70;;;0.40;;
31734;SDS011;18313;48.518;9.124;2023-01-05T08:59:46;0.90;;;0.60;;
31734;SDS011;18313;48.518;9.124;2023-01-05T09:02:14;1.02;;;0.50;;
31734;SDS011;18313;48.518;9.124;2023-01-05T09:04:47;2.88;;;0.50;;
31734;SDS011;18313;48.518;9.124;2023-01-05T09:07:14;1.38;;;0.57;;
31734;SDS011;18313;48.518;9.124;2023-01-05T09:09:41;2.78;;;0.90;;
31734;SDS011;18313;48.518;9.124;2023-01-05T09:12:08;1.85;;;0.90;;
31734;SDS011;18313;48.518;9.124;2023-01-05T09:14:36;1.15;;;0.70;;
31734;SDS011;18313;48.518;9.124;2023-01-05T09:17:04;1.17;;;0.60;;
31734;SDS011;18313;48.518;9.124;2023-01-05T09:19:34;2.00;;;1.40;;
31734;SDS011;18313;48.518;9.124;2023-01-05T09:22:01;1.70;;;1.00;;
31734;SDS011;18313;48.518;9.124;2023-01-05T09:24:29;2.65;;;1.67;;
31734;SDS011;18313;48.518;9.124;2023-01-05T09:26:56;2.22;;;1.40;;
31734;SDS011;18313;48.518;9.124;2023-01-05T09:29:24;4.35;;;2.15;;
31734;SDS011;18313;48.518;9.124;2023-01-05T09:31:51;3.45;;;2.63;;
31734;SDS011;18313;48.518;9.124;2023-01-05T09:34:18;4.32;;;2.60;;
31734;SDS011;18313;48.518;9.124;2023-01-05T09:36:46;2.65;;;1.40;;
31734;SDS011;18313;48.518;9.124;2023-01-05T09:39:13;2.17;;;1.15;;
31734;SDS011;18313;48.518;9.124;2023-01-05T09:41:45;2.70;;;1.52;;
31734;SDS011;18313;48.518;9.124;2023-01-05T09:44:27;8.43;;;3.85;;
31734;SDS011;18313;48.518;9.124;2023-01-05T09:47:33;6.18;;;2.70;;
31734;SDS011;18313;48.518;9.124;2023-01-05T09:49:57;4.45;;;1.95;;
31734;SDS011;18313;48.518;9.124;2023-01-05T09:52:25;2.35;;;1.20;;
31734;SDS011;18313;48.518;9.124;2023-01-05T09:54:58;2.60;;;1.08;;
31734;SDS011;18313;48.518;9.124;2023-01-05T09:57:27;2.45;;;1.30;;
31734;SDS011;18313;48.518;9.124;2023-01-05T09:59:57;2.92;;;1.00;;
31734;SDS011;18313;48.518;9.124;2023-01-05T10:02:42;3.75;;;1.00;;
31734;SDS011;18313;48.518;9.124;2023-01-05T10:05:23;2.63;;;1.20;;
31734;SDS011;18313;48.518;9.124;2023-01-05T10:10:46;2.00;;;1.05;;
31734;SDS011;18313;48.518;9.124;2023-01-05T10:13:48;1.50;;;0.88;;
31734;SDS011;18313;48.518;9.124;2023-01-05T10:16:52;2.50;;;1.00;;
31734;SDS011;18313;48.518;9.124;2023-01-05T10:19:39;2.03;;;0.85;;
31734;SDS011;18313;48.518;9.124;2023-01-05T10:27:33;2.67;;;0.90;;
31734;SDS011;18313;48.518;9.124;2023-01-05T10:30:16;4.10;;;1.35;;
31734;SDS011;18313;48.518;9.124;2023-01-05T10:46:40;8.93;;;1.52;;
31734;SDS011;18313;48.518;9.124;2023-01-05T10:49:18;6.22;;;1.85;;
31734;SDS011;18313;48.518;9.124;2023-01-05T10:51:51;9.55;;;1.70;;
31734;SDS011;18313;48.518;9.124;2023-01-05T11:00:13;7.22;;;1.40;;
31734;SDS011;18313;48.518;9.124;2023-01-05T11:02:48;9.00;;;1.40;;
31734;SDS011;18313;48.518;9.124;2023-01-05T11:05:34;8.55;;;1.40;;
31734;SDS011;18313;48.518;9.124;2023-01-05T11:08:13;7.70;;;1.50;;
31734;SDS011;18313;48.518;9.124;2023-01-05T11:10:59;9.43;;;1.48;;
31734;SDS011;18313;48.518;9.124;2023-01-05T11:13:39;5.80;;;1.48;;
31734;SDS011;18313;48.518;9.124;2023-01-05T11:16:18;9.32;;;1.70;;
31734;SDS011;18313;48.518;9.124;2023-01-05T11:18:54;9.98;;;1.48;;
31734;SDS011;18313;48.518;9.124;2023-01-05T11:21:38;7.47;;;1.55;;
31734;SDS011;18313;48.518;9.124;2023-01-05T11:24:25;7.35;;;1.60;;
31734;SDS011;18313;48.518;9.124;2023-01-05T11:29:24;11.00;;;2.10;;
31734;SDS011;18313;48.518;9.124;2023-01-05T11:31:52;10.95;;;2.00;;
31734;SDS011;18313;48.518;9.124;2023-01-05T11:39:46;13.57;;;2.28;;
31734;SDS011;18313;48.518;9.124;2023-01-05T11:42:26;9.52;;;1.80;;
31734;SDS011;18313;48.518;9.124;2023-01-05T11:47:44;12.18;;;2.22;;
31734;SDS011;18313;48.518;9.124;2023-01-05T11:50:17;9.60;;;2.22;;
31734;SDS011;18313;48.518;9.124;2023-01-05T11:52:48;12.15;;;2.42;;
31734;SDS011;18313;48.518;9.124;2023-01-05T11:57:50;13.13;;;2.22;;
31734;SDS011;18313;48.518;9.124;2023-01-05T12:09:00;12.30;;;2.75;;
31734;SDS011;18313;48.518;9.124;2023-01-05T12:11:57;11.68;;;1.90;;
31734;SDS011;18313;48.518;9.124;2023-01-05T12:14:59;13.13;;;1.80;;
31734;SDS011;18313;48.518;9.124;2023-01-05T12:26:03;10.80;;;1.80;;
31734;SDS011;18313;48.518;9.124;2023-01-05T12:31:53;10.23;;;1.90;;
31734;SDS011;18313;48.518;9.124;2023-01-05T12:35:20;9.98;;;1.80;;
31734;SDS011;18313;48.518;9.124;2023-01-05T12:38:10;10.35;;;2.22;;
31734;SDS011;18313;48.518;9.124;2023-01-05T12:41:03;9.55;;;1.80;;
31734;SDS011;18313;48.518;9.124;2023-01-05T12:49:41;10.18;;;1.77;;
31734;SDS011;18313;48.518;9.124;2023-01-05T12:52:37;12.50;;;1.85;;
31734;SDS011;18313;48.518;9.124;2023-01-05T12:57:45;9.02;;;1.70;;
31734;SDS011;18313;48.518;9.124;2023-01-05T13:00:18;8.30;;;1.80;;
31734;SDS011;18313;48.518;9.124;2023-01-05T13:02:49;6.90;;;1.60;;
31734;SDS011;18313;48.518;9.124;2023-01-05T13:08:16;7.60;;;1.60;;
31734;SDS011;18313;48.518;9.124;2023-01-05T13:10:47;11.38;;;1.80;;
31734;SDS011;18313;48.518;9.124;2023-01-05T13:13:36;7.70;;;1.40;;
31734;SDS011;18313;48.518;9.124;2023-01-05T13:16:15;11.15;;;1.90;;
31734;SDS011;18313;48.518;9.124;2023-01-05T13:18:54;8.88;;;1.90;;
31734;SDS011;18313;48.518;9.124;2023-01-05T13:21:27;6.28;;;1.30;;
31734;SDS011;18313;48.518;9.124;2023-01-05T13:24:01;7.25;;;1.70;;
31734;SDS011;18313;48.518;9.124;2023-01-05T13:26:34;7.85;;;1.70;;
31734;SDS011;18313;48.518;9.124;2023-01-05T13:29:04;9.27;;;1.88;;
31734;SDS011;18313;48.518;9.124;2023-01-05T13:31:41;7.82;;;2.13;;
31734;SDS011;18313;48.518;9.124;2023-01-05T13:37:20;6.03;;;1.70;;
31734;SDS011;18313;48.518;9.124;2023-01-05T13:42:43;7.80;;;1.52;;
31734;SDS011;18313;48.518;9.124;2023-01-05T13:45:52;6.32;;;1.90;;
31734;SDS011;18313;48.518;9.124;2023-01-05T13:48:57;5.13;;;1.33;;
31734;SDS011;18313;48.518;9.124;2023-01-05T13:54:00;5.40;;;1.17;;
31734;SDS011;18313;48.518;9.124;2023-01-05T13:56:31;5.60;;;1.20;;
31734;SDS011;18313;48.518;9.124;2023-01-05T13:59:06;9.05;;;1.70;;
31734;SDS011;18313;48.518;9.124;2023-01-05T14:02:00;7.38;;;1.35;;
31734;SDS011;18313;48.518;9.124;2023-01-05T14:04:30;7.32;;;1.45;;
31734;SDS011;18313;48.518;9.124;2023-01-05T14:07:03;4.38;;;1.02;;
31734;SDS011;18313;48.518;9.124;2023-01-05T14:23:00;8.75;;;1.67;;
31734;SDS011;18313;48.518;9.124;2023-01-05T14:30:44;5.60;;;1.35;;
31734;SDS011;18313;48.518;9.124;2023-01-05T14:33:12;4.40;;;1.20;;
31734;SDS011;18313;48.518;9.124;2023-01-05T14:35:44;5.93;;;1.40;;
31734;SDS011;18313;48.518;9.124;2023-01-05T14:38:21;8.18;;;1.50;;
31734;SDS011;18313;48.518;9.124;2023-01-05T14:40:51;7.28;;;1.65;;
31734;SDS011;18313;48.518;9.124;2023-01-05T14:46:09;5.63;;;1.35;;
31734;SDS011;18313;48.518;9.124;2023-01-05T14:49:29;5.63;;;1.60;;
31734;SDS011;18313;48.518;9.124;2023-01-05T14:51:33;4.60;;;1.25;;
31734;SDS011;18313;48.518;9.124;2023-01-05T14:54:03;6.68;;;1.67;;
31734;SDS011;18313;48.518;9.124;2023-01-05T14:56:35;8.15;;;1.42;;
31734;SDS011;18313;48.518;9.124;2023-01-05T14:59:04;5.05;;;1.38;;
31734;SDS011;18313;48.518;9.124;2023-01-05T15:01:44;6.00;;;1.33;;
31734;SDS011;18313;48.518;9.124;2023-01-05T15:07:30;6.18;;;1.38;;
31734;SDS011;18313;48.518;9.124;2023-01-05T15:21:27;7.30;;;1.88;;
31734;SDS011;18313;48.518;9.124;2023-01-05T15:24:27;8.63;;;3.13;;
31734;SDS011;18313;48.518;9.124;2023-01-05T15:30:42;10.63;;;2.40;;
31734;SDS011;18313;48.518;9.124;2023-01-05T15:33:19;8.40;;;2.10;;
31734;SDS011;18313;48.518;9.124;2023-01-05T15:35:54;16.35;;;5.07;;
31734;SDS011;18313;48.518;9.124;2023-01-05T15:38:27;17.40;;;7.05;;
31734;SDS011;18313;48.518;9.124;2023-01-05T15:40:59;13.80;;;5.47;;
31734;SDS011;18313;48.518;9.124;2023-01-05T15:43:31;8.40;;;2.60;;
31734;SDS011;18313;48.518;9.124;2023-01-05T15:45:59;9.18;;;2.63;;
31734;SDS011;18313;48.518;9.124;2023-01-05T15:48:40;5.75;;;2.38;;
31734;SDS011;18313;48.518;9.124;2023-01-05T15:51:27;6.57;;;2.65;;
31734;SDS011;18313;48.518;9.124;2023-01-05T15:53:58;5.40;;;2.10;;
31734;SDS011;18313;48.518;9.124;2023-01-05T15:56:29;10.38;;;2.70;;
31734;SDS011;18313;48.518;9.124;2023-01-05T15:59:02;7.50;;;2.10;;
31734;SDS011;18313;48.518;9.124;2023-01-05T16:01:44;9.00;;;2.83;;
31734;SDS011;18313;48.518;9.124;2023-01-05T16:04:14;12.57;;;3.40;;
31734;SDS011;18313;48.518;9.124;2023-01-05T16:06:57;9.13;;;3.00;;
31734;SDS011;18313;48.518;9.124;2023-01-05T16:12:00;6.72;;;1.80;;
31734;SDS011;18313;48.518;9.124;2023-01-05T16:14:39;10.65;;;2.00;;
31734;SDS011;18313;48.518;9.124;2023-01-05T16:19:46;7.57;;;2.05;;
31734;SDS011;18313;48.518;9.124;2023-01-05T16:25:13;7.45;;;1.70;;
31734;SDS011;18313;48.518;9.124;2023-01-05T16:27:58;9.43;;;1.90;;
31734;SDS011;18313;48.518;9.124;2023-01-05T16:30:38;10.35;;;2.35;;
31734;SDS011;18313;48.518;9.124;2023-01-05T16:35:38;8.02;;;3.33;;
31734;SDS011;18313;48.518;9.124;2023-01-05T16:38:23;13.55;;;5.40;;
31734;SDS011;18313;48.518;9.124;2023-01-05T16:41:10;11.15;;;4.00;;
31734;SDS011;18313;48.518;9.124;2023-01-05T16:43:59;11.00;;;3.67;;
31734;SDS011;18313;48.518;9.124;2023-01-05T16:46:31;8.90;;;3.35;;
31734;SDS011;18313;48.518;9.124;2023-01-05T16:49:30;9.93;;;3.42;;
31734;SDS011;18313;48.518;9.124;2023-01-05T16:52:07;6.30;;;1.90;;
31734;SDS011;18313;48.518;9.124;2023-01-05T16:54:50;8.75;;;2.42;;
31734;SDS011;18313;48.518;9.124;2023-01-05T16:57:49;10.70;;;3.20;;
31734;SDS011;18313;48.518;9.124;2023-01-05T17:00:35;7.72;;;2.70;;
31734;SDS011;18313;48.518;9.124;2023-01-05T17:05:50;8.10;;;3.28;;
31734;SDS011;18313;48.518;9.124;2023-01-05T17:08:23;12.45;;;5.68;;
31734;SDS011;18313;48.518;9.124;2023-01-05T17:10:53;9.73;;;4.03;;
31734;SDS011;18313;48.518;9.124;2023-01-05T17:13:24;6.38;;;2.58;;
31734;SDS011;18313;48.518;9.124;2023-01-05T17:15:56;10.35;;;2.55;;
31734;SDS011;18313;48.518;9.124;2023-01-05T17:18:27;9.57;;;2.33;;
31734;SDS011;18313;48.518;9.124;2023-01-05T17:20:55;6.95;;;2.42;;
31734;SDS011;18313;48.518;9.124;2023-01-05T17:23:26;6.07;;;2.50;;
31734;SDS011;18313;48.518;9.124;2023-01-05T17:25:55;6.45;;;2.65;;
31734;SDS011;18313;48.518;9.124;2023-01-05T17:28:24;7.43;;;2.22;;
31734;SDS011;18313;48.518;9.124;2023-01-05T17:30:51;10.27;;;3.95;;
31734;SDS011;18313;48.518;9.124;2023-01-05T17:33:19;9.32;;;3.20;;
31734;SDS011;18313;48.518;9.124;2023-01-05T17:35:46;7.80;;;2.67;;
31734;SDS011;18313;48.518;9.124;2023-01-05T17:38:14;10.55;;;2.67;;
31734;SDS011;18313;48.518;9.124;2023-01-05T17:40:42;8.50;;;2.65;;
31734;SDS011;18313;48.518;9.124;2023-01-05T17:43:09;6.68;;;3.40;;
31734;SDS011;18313;48.518;9.124;2023-01-05T17:45:37;7.07;;;2.80;;
31734;SDS011;18313;48.518;9.124;2023-01-05T17:48:06;5.60;;;2.00;;
31734;SDS011;18313;48.518;9.124;2023-01-05T17:50:34;3.90;;;1.70;;
31734;SDS011;18313;48.518;9.124;2023-01-05T17:53:02;3.95;;;1.80;;
31734;SDS011;18313;48.518;9.124;2023-01-05T17:55:30;6.00;;;1.95;;